sensor_id;sensor_type;location;lat;lon;timestamp;P1;durP1;ratioP1;P2;durP2;ratioP2
65936;SDS011;52707;52.086;5.418;2023-04-25T00:00:48;26.83;;;3.53;;
65936;SDS011;52707;52.086;5.418;2023-04-25T00:03:14;19.60;;;3.40;;
65936;SDS011;52707;52.086;5.418;2023-04-25T00:05:41;12.73;;;3.17;;
65936;SDS011;52707;52.086;5.418;2023-04-25T00:08:07;16.98;;;4.43;;
65936;SDS011;52707;52.086;5.418;2023-04-25T00:10:34;20.58;;;3.50;;
65936;SDS011;52707;52.086;5.418;2023-04-25T00:13:00;23.55;;;3.17;;
65936;SDS011;52707;52.086;5.418;2023-04-25T00:15:29;15.13;;;3.88;;
65936;SDS011;52707;52.086;5.418;2023-04-25T00:17:58;21.58;;;3.75;;
65936;SDS011;52707;52.086;5.418;2023-04-25T00:20:24;19.90;;;4.85;;
65936;SDS011;52707;52.086;5.418;2023-04-25T00:22:51;18.35;;;3.72;;
65936;SDS011;52707;52.086;5.418;2023-04-25T00:25:19;18.52;;;4.00;;
65936;SDS011;52707;52.086;5.418;2023-04-25T00:27:45;22.55;;;3.90;;
65936;SDS011;52707;52.086;5.418;2023-04-25T00:30:12;24.25;;;3.78;;
65936;SDS011;52707;52.086;5.418;2023-04-25T00:32:38;23.33;;;4.15;;
65936;SDS011;52707;52.086;5.418;2023-04-25T00:35:05;23.23;;;3.53;;
65936;SDS011;52707;52.086;5.418;2023-04-25T00:37:32;26.42;;;4.75;;
65936;SDS011;52707;52.086;5.418;2023-04-25T00:39:58;23.27;;;3.95;;
65936;SDS011;52707;52.086;5.418;2023-04-25T00:42:24;16.85;;;4.13;;
65936;SDS011;52707;52.086;5.418;2023-04-25T00:44:51;26.50;;;3.83;;
65936;SDS011;52707;52.086;5.418;2023-04-25T00:47:18;20.75;;;3.67;;
65936;SDS011;52707;52.086;5.418;2023-04-25T00:49:44;34.45;;;4.97;;
65936;SDS011;52707;52.086;5.418;2023-04-25T00:52:11;18.92;;;4.30;;
65936;SDS011;52707;52.086;5.418;2023-04-25T00:54:37;19.50;;;4.45;;
65936;SDS011;52707;52.086;5.418;2023-04-25T00:57:04;18.98;;;3.78;;
65936;SDS011;52707;52.086;5.418;2023-04-25T00:59:30;25.95;;;3.97;;
65936;SDS011;52707;52.086;5.418;2023-04-25T01:01:56;17.10;;;4.22;;
65936;SDS011;52707;52.086;5.418;2023-04-25T01:04:24;23.30;;;3.42;;
65936;SDS011;52707;52.086;5.418;2023-04-25T01:06:50;16.30;;;3.78;;
65936;SDS011;52707;52.086;5.418;2023-04-25T01:09:17;16.38;;;3.90;;
65936;SDS011;52707;52.086;5.418;2023-04-25T01:11:43;16.55;;;3.67;;
65936;SDS011;52707;52.086;5.418;2023-04-25T01:14:10;21.02;;;3.45;;
65936;SDS011;52707;52.086;5.418;2023-04-25T01:16:36;13.25;;;3.28;;
65936;SDS011;52707;52.086;5.418;2023-04-25T01:19:05;29.17;;;4.03;;
65936;SDS011;52707;52.086;5.418;2023-04-25T01:21:34;14.98;;;3.28;;
65936;SDS011;52707;52.086;5.418;2023-04-25T01:24:01;13.70;;;3.60;;
65936;SDS011;52707;52.086;5.418;2023-04-25T01:26:27;20.02;;;3.80;;
65936;SDS011;52707;52.086;5.418;2023-04-25T01:28:54;17.35;;;3.58;;
65936;SDS011;52707;52.086;5.418;2023-04-25T01:31:21;18.13;;;3.40;;
65936;SDS011;52707;52.086;5.418;2023-04-25T01:33:47;21.90;;;3.85;;
65936;SDS011;52707;52.086;5.418;2023-04-25T01:36:14;16.33;;;3.28;;
65936;SDS011;52707;52.086;5.418;2023-04-25T01:38:41;15.73;;;3.67;;
65936;SDS011;52707;52.086;5.418;2023-04-25T01:41:08;25.60;;;3.97;;
65936;SDS011;52707;52.086;5.418;2023-04-25T01:43:34;22.33;;;3.92;;
65936;SDS011;52707;52.086;5.418;2023-04-25T01:46:01;23.50;;;3.58;;
65936;SDS011;52707;52.086;5.418;2023-04-25T01:48:27;24.08;;;4.55;;
65936;SDS011;52707;52.086;5.418;2023-04-25T01:50:54;17.02;;;3.28;;
65936;SDS011;52707;52.086;5.418;2023-04-25T01:53:20;26.02;;;4.50;;
65936;SDS011;52707;52.086;5.418;2023-04-25T01:55:47;18.42;;;3.95;;
65936;SDS011;52707;52.086;5.418;2023-04-25T01:58:13;15.25;;;3.72;;
65936;SDS011;52707;52.086;5.418;2023-04-25T02:00:39;26.30;;;4.20;;
65936;SDS011;52707;52.086;5.418;2023-04-25T02:03:07;18.05;;;4.22;;
65936;SDS011;52707;52.086;5.418;2023-04-25T02:05:35;14.93;;;3.67;;
65936;SDS011;52707;52.086;5.418;2023-04-25T02:08:03;19.75;;;3.83;;
65936;SDS011;52707;52.086;5.418;2023-04-25T02:10:29;23.55;;;4.28;;
65936;SDS011;52707;52.086;5.418;2023-04-25T02:12:56;14.35;;;3.50;;
65936;SDS011;52707;52.086;5.418;2023-04-25T02:15:22;19.13;;;3.53;;
65936;SDS011;52707;52.086;5.418;2023-04-25T02:17:49;18.50;;;4.15;;
65936;SDS011;52707;52.086;5.418;2023-04-25T02:20:15;19.40;;;4.05;;
65936;SDS011;52707;52.086;5.418;2023-04-25T02:22:42;16.05;;;3.72;;
65936;SDS011;52707;52.086;5.418;2023-04-25T02:25:08;25.13;;;4.32;;
65936;SDS011;52707;52.086;5.418;2023-04-25T02:27:35;21.85;;;3.88;;
65936;SDS011;52707;52.086;5.418;2023-04-25T02:30:01;20.70;;;3.42;;
65936;SDS011;52707;52.086;5.418;2023-04-25T02:32:27;17.17;;;3.90;;
65936;SDS011;52707;52.086;5.418;2023-04-25T02:34:54;20.33;;;3.67;;
65936;SDS011;52707;52.086;5.418;2023-04-25T02:37:20;20.98;;;3.85;;
65936;SDS011;52707;52.086;5.418;2023-04-25T02:39:46;21.83;;;4.10;;
65936;SDS011;52707;52.086;5.418;2023-04-25T02:42:13;20.00;;;3.72;;
65936;SDS011;52707;52.086;5.418;2023-04-25T02:44:39;13.98;;;2.90;;
65936;SDS011;52707;52.086;5.418;2023-04-25T02:47:05;23.83;;;3.83;;
65936;SDS011;52707;52.086;5.418;2023-04-25T02:49:32;15.20;;;3.47;;
65936;SDS011;52707;52.086;5.418;2023-04-25T02:51:58;22.30;;;3.40;;
65936;SDS011;52707;52.086;5.418;2023-04-25T02:54:24;24.00;;;4.55;;
65936;SDS011;52707;52.086;5.418;2023-04-25T02:56:51;21.27;;;4.60;;
65936;SDS011;52707;52.086;5.418;2023-04-25T02:59:17;14.77;;;4.18;;
65936;SDS011;52707;52.086;5.418;2023-04-25T03:01:43;14.00;;;3.85;;
65936;SDS011;52707;52.086;5.418;2023-04-25T03:04:10;19.52;;;3.72;;
65936;SDS011;52707;52.086;5.418;2023-04-25T03:06:36;25.30;;;3.55;;
65936;SDS011;52707;52.086;5.418;2023-04-25T03:09:03;20.40;;;4.20;;
65936;SDS011;52707;52.086;5.418;2023-04-25T03:11:30;19.70;;;4.20;;
65936;SDS011;52707;52.086;5.418;2023-04-25T03:13:56;19.38;;;4.07;;
65936;SDS011;52707;52.086;5.418;2023-04-25T03:16:22;18.10;;;3.92;;
65936;SDS011;52707;52.086;5.418;2023-04-25T03:18:48;18.58;;;3.90;;
65936;SDS011;52707;52.086;5.418;2023-04-25T03:21:16;27.98;;;4.35;;
65936;SDS011;52707;52.086;5.418;2023-04-25T03:23:42;20.92;;;3.85;;
65936;SDS011;52707;52.086;5.418;2023-04-25T03:26:09;19.65;;;4.00;;
65936;SDS011;52707;52.086;5.418;2023-04-25T03:28:35;22.13;;;3.75;;
65936;SDS011;52707;52.086;5.418;2023-04-25T03:31:02;18.38;;;4.65;;
65936;SDS011;52707;52.086;5.418;2023-04-25T03:33:28;16.92;;;3.70;;
65936;SDS011;52707;52.086;5.418;2023-04-25T03:35:54;20.17;;;4.32;;
65936;SDS011;52707;52.086;5.418;2023-04-25T03:38:21;14.80;;;3.78;;
65936;SDS011;52707;52.086;5.418;2023-04-25T03:40:47;18.27;;;4.05;;
65936;SDS011;52707;52.086;5.418;2023-04-25T03:43:13;14.68;;;3.50;;
65936;SDS011;52707;52.086;5.418;2023-04-25T03:45:40;13.85;;;3.40;;
65936;SDS011;52707;52.086;5.418;2023-04-25T03:48:06;13.38;;;3.70;;
65936;SDS011;52707;52.086;5.418;2023-04-25T03:50:33;18.80;;;3.65;;
65936;SDS011;52707;52.086;5.418;2023-04-25T03:52:59;12.02;;;3.63;;
65936;SDS011;52707;52.086;5.418;2023-04-25T03:55:25;15.10;;;3.50;;
65936;SDS011;52707;52.086;5.418;2023-04-25T03:57:52;18.35;;;3.65;;
65936;SDS011;52707;52.086;5.418;2023-04-25T04:00:18;18.13;;;4.03;;
65936;SDS011;52707;52.086;5.418;2023-04-25T04:02:44;16.33;;;3.53;;
65936;SDS011;52707;52.086;5.418;2023-04-25T04:05:11;22.05;;;3.72;;
65936;SDS011;52707;52.086;5.418;2023-04-25T04:07:38;12.88;;;3.35;;
65936;SDS011;52707;52.086;5.418;2023-04-25T04:10:06;18.27;;;3.58;;
65936;SDS011;52707;52.086;5.418;2023-04-25T04:12:33;16.02;;;3.42;;
65936;SDS011;52707;52.086;5.418;2023-04-25T04:14:59;18.83;;;3.80;;
65936;SDS011;52707;52.086;5.418;2023-04-25T04:17:26;13.70;;;3.10;;
65936;SDS011;52707;52.086;5.418;2023-04-25T04:19:52;20.00;;;3.55;;
65936;SDS011;52707;52.086;5.418;2023-04-25T04:22:18;17.42;;;3.65;;
65936;SDS011;52707;52.086;5.418;2023-04-25T04:24:44;13.48;;;3.35;;
65936;SDS011;52707;52.086;5.418;2023-04-25T04:27:12;21.48;;;3.40;;
65936;SDS011;52707;52.086;5.418;2023-04-25T04:29:38;20.55;;;3.95;;
65936;SDS011;52707;52.086;5.418;2023-04-25T04:32:05;20.48;;;3.30;;
65936;SDS011;52707;52.086;5.418;2023-04-25T04:34:31;14.15;;;3.00;;
65936;SDS011;52707;52.086;5.418;2023-04-25T04:36:58;18.75;;;3.35;;
65936;SDS011;52707;52.086;5.418;2023-04-25T04:39:24;15.25;;;3.42;;
65936;SDS011;52707;52.086;5.418;2023-04-25T04:41:50;18.95;;;4.63;;
65936;SDS011;52707;52.086;5.418;2023-04-25T04:44:17;19.05;;;3.85;;
65936;SDS011;52707;52.086;5.418;2023-04-25T04:46:43;25.63;;;3.38;;
65936;SDS011;52707;52.086;5.418;2023-04-25T04:49:10;11.60;;;2.85;;
65936;SDS011;52707;52.086;5.418;2023-04-25T04:51:38;10.65;;;2.78;;
65936;SDS011;52707;52.086;5.418;2023-04-25T04:54:04;11.90;;;2.80;;
65936;SDS011;52707;52.086;5.418;2023-04-25T04:56:31;19.85;;;3.35;;
65936;SDS011;52707;52.086;5.418;2023-04-25T04:58:57;18.63;;;2.80;;
65936;SDS011;52707;52.086;5.418;2023-04-25T05:01:24;14.02;;;2.97;;
65936;SDS011;52707;52.086;5.418;2023-04-25T05:03:51;14.82;;;2.67;;
65936;SDS011;52707;52.086;5.418;2023-04-25T05:06:18;15.13;;;3.20;;
65936;SDS011;52707;52.086;5.418;2023-04-25T05:08:45;14.05;;;3.03;;
65936;SDS011;52707;52.086;5.418;2023-04-25T05:11:11;20.88;;;2.65;;
65936;SDS011;52707;52.086;5.418;2023-04-25T05:13:37;11.18;;;3.60;;
65936;SDS011;52707;52.086;5.418;2023-04-25T05:16:04;9.85;;;2.40;;
65936;SDS011;52707;52.086;5.418;2023-04-25T05:18:30;14.18;;;2.25;;
65936;SDS011;52707;52.086;5.418;2023-04-25T05:20:56;18.50;;;3.45;;
65936;SDS011;52707;52.086;5.418;2023-04-25T05:23:23;11.73;;;2.97;;
65936;SDS011;52707;52.086;5.418;2023-04-25T05:25:49;18.52;;;2.78;;
65936;SDS011;52707;52.086;5.418;2023-04-25T05:28:15;12.25;;;2.90;;
65936;SDS011;52707;52.086;5.418;2023-04-25T05:30:41;15.88;;;2.90;;
65936;SDS011;52707;52.086;5.418;2023-04-25T05:33:08;12.52;;;2.40;;
65936;SDS011;52707;52.086;5.418;2023-04-25T05:35:35;10.40;;;2.30;;
65936;SDS011;52707;52.086;5.418;2023-04-25T05:38:01;11.85;;;2.80;;
65936;SDS011;52707;52.086;5.418;2023-04-25T05:40:27;13.38;;;2.97;;
65936;SDS011;52707;52.086;5.418;2023-04-25T05:42:53;10.73;;;3.08;;
65936;SDS011;52707;52.086;5.418;2023-04-25T05:45:20;15.50;;;2.63;;
65936;SDS011;52707;52.086;5.418;2023-04-25T05:47:46;14.32;;;2.60;;
65936;SDS011;52707;52.086;5.418;2023-04-25T05:50:13;14.50;;;2.20;;
65936;SDS011;52707;52.086;5.418;2023-04-25T05:52:39;17.70;;;2.35;;
65936;SDS011;52707;52.086;5.418;2023-04-25T05:55:06;10.40;;;2.30;;
65936;SDS011;52707;52.086;5.418;2023-04-25T05:57:32;14.75;;;2.70;;
65936;SDS011;52707;52.086;5.418;2023-04-25T05:59:58;7.03;;;1.83;;
65936;SDS011;52707;52.086;5.418;2023-04-25T06:02:25;18.55;;;2.30;;
65936;SDS011;52707;52.086;5.418;2023-04-25T06:04:51;11.55;;;3.25;;
65936;SDS011;52707;52.086;5.418;2023-04-25T06:07:18;11.13;;;2.10;;
65936;SDS011;52707;52.086;5.418;2023-04-25T06:09:46;14.35;;;2.28;;
65936;SDS011;52707;52.086;5.418;2023-04-25T06:12:12;17.00;;;2.50;;
65936;SDS011;52707;52.086;5.418;2023-04-25T06:14:38;13.15;;;2.03;;
65936;SDS011;52707;52.086;5.418;2023-04-25T06:17:05;8.45;;;1.92;;
65936;SDS011;52707;52.086;5.418;2023-04-25T06:19:35;8.00;;;1.90;;
65936;SDS011;52707;52.086;5.418;2023-04-25T06:22:01;7.63;;;2.20;;
65936;SDS011;52707;52.086;5.418;2023-04-25T06:24:28;15.23;;;2.22;;
65936;SDS011;52707;52.086;5.418;2023-04-25T06:26:54;7.25;;;2.22;;
65936;SDS011;52707;52.086;5.418;2023-04-25T06:29:21;11.35;;;1.90;;
65936;SDS011;52707;52.086;5.418;2023-04-25T06:31:47;16.33;;;2.33;;
65936;SDS011;52707;52.086;5.418;2023-04-25T06:34:13;14.75;;;1.85;;
65936;SDS011;52707;52.086;5.418;2023-04-25T06:36:40;10.35;;;2.00;;
65936;SDS011;52707;52.086;5.418;2023-04-25T06:39:07;9.93;;;1.95;;
65936;SDS011;52707;52.086;5.418;2023-04-25T06:41:34;10.32;;;2.35;;
65936;SDS011;52707;52.086;5.418;2023-04-25T06:44:01;7.97;;;1.80;;
65936;SDS011;52707;52.086;5.418;2023-04-25T06:46:27;19.38;;;2.70;;
65936;SDS011;52707;52.086;5.418;2023-04-25T06:48:54;15.75;;;2.15;;
65936;SDS011;52707;52.086;5.418;2023-04-25T06:51:20;9.13;;;1.88;;
65936;SDS011;52707;52.086;5.418;2023-04-25T06:53:49;13.93;;;2.05;;
65936;SDS011;52707;52.086;5.418;2023-04-25T06:56:16;9.02;;;2.30;;
65936;SDS011;52707;52.086;5.418;2023-04-25T06:58:42;10.10;;;1.80;;
65936;SDS011;52707;52.086;5.418;2023-04-25T07:01:08;6.65;;;1.75;;
65936;SDS011;52707;52.086;5.418;2023-04-25T07:03:34;13.52;;;1.92;;
65936;SDS011;52707;52.086;5.418;2023-04-25T07:06:03;13.27;;;1.80;;
65936;SDS011;52707;52.086;5.418;2023-04-25T07:08:30;9.15;;;1.95;;
65936;SDS011;52707;52.086;5.418;2023-04-25T07:10:56;14.50;;;1.98;;
65936;SDS011;52707;52.086;5.418;2023-04-25T07:13:22;11.52;;;2.17;;
65936;SDS011;52707;52.086;5.418;2023-04-25T07:15:49;9.18;;;1.70;;
65936;SDS011;52707;52.086;5.418;2023-04-25T07:18:15;7.82;;;1.42;;
65936;SDS011;52707;52.086;5.418;2023-04-25T07:20:42;7.50;;;1.60;;
65936;SDS011;52707;52.086;5.418;2023-04-25T07:23:08;14.18;;;2.08;;
65936;SDS011;52707;52.086;5.418;2023-04-25T07:25:34;13.52;;;1.80;;
65936;SDS011;52707;52.086;5.418;2023-04-25T07:28:01;12.25;;;2.35;;
65936;SDS011;52707;52.086;5.418;2023-04-25T07:30:27;11.93;;;1.98;;
65936;SDS011;52707;52.086;5.418;2023-04-25T07:32:53;10.70;;;2.20;;
65936;SDS011;52707;52.086;5.418;2023-04-25T07:35:20;8.18;;;1.85;;
65936;SDS011;52707;52.086;5.418;2023-04-25T07:37:46;10.77;;;1.60;;
65936;SDS011;52707;52.086;5.418;2023-04-25T07:40:13;5.43;;;1.40;;
65936;SDS011;52707;52.086;5.418;2023-04-25T07:42:41;16.90;;;1.70;;
65936;SDS011;52707;52.086;5.418;2023-04-25T07:45:08;11.93;;;1.73;;
65936;SDS011;52707;52.086;5.418;2023-04-25T07:47:35;8.30;;;1.40;;
65936;SDS011;52707;52.086;5.418;2023-04-25T07:50:03;11.75;;;1.48;;
65936;SDS011;52707;52.086;5.418;2023-04-25T07:52:29;7.40;;;1.50;;
65936;SDS011;52707;52.086;5.418;2023-04-25T07:54:55;9.25;;;1.48;;
65936;SDS011;52707;52.086;5.418;2023-04-25T07:57:22;7.65;;;1.83;;
65936;SDS011;52707;52.086;5.418;2023-04-25T07:59:50;7.38;;;1.75;;
65936;SDS011;52707;52.086;5.418;2023-04-25T08:02:16;12.20;;;2.13;;
65936;SDS011;52707;52.086;5.418;2023-04-25T08:04:42;13.82;;;1.95;;
65936;SDS011;52707;52.086;5.418;2023-04-25T08:07:09;11.70;;;1.92;;
65936;SDS011;52707;52.086;5.418;2023-04-25T08:09:35;9.32;;;1.98;;
65936;SDS011;52707;52.086;5.418;2023-04-25T08:12:03;9.48;;;1.52;;
65936;SDS011;52707;52.086;5.418;2023-04-25T08:14:29;11.15;;;1.20;;
65936;SDS011;52707;52.086;5.418;2023-04-25T08:17:02;12.02;;;2.10;;
65936;SDS011;52707;52.086;5.418;2023-04-25T08:19:29;9.63;;;1.60;;
65936;SDS011;52707;52.086;5.418;2023-04-25T08:21:56;5.95;;;1.52;;
65936;SDS011;52707;52.086;5.418;2023-04-25T08:24:23;7.88;;;1.55;;
65936;SDS011;52707;52.086;5.418;2023-04-25T08:26:49;10.35;;;1.92;;
65936;SDS011;52707;52.086;5.418;2023-04-25T08:29:15;46.42;;;2.95;;
65936;SDS011;52707;52.086;5.418;2023-04-25T08:31:42;12.52;;;2.00;;
65936;SDS011;52707;52.086;5.418;2023-04-25T08:34:08;11.82;;;1.90;;
65936;SDS011;52707;52.086;5.418;2023-04-25T08:36:34;6.32;;;1.63;;
65936;SDS011;52707;52.086;5.418;2023-04-25T08:39:05;11.07;;;1.50;;
65936;SDS011;52707;52.086;5.418;2023-04-25T08:41:31;11.57;;;1.48;;
65936;SDS011;52707;52.086;5.418;2023-04-25T08:43:58;13.65;;;1.45;;
65936;SDS011;52707;52.086;5.418;2023-04-25T08:46:26;3.85;;;1.10;;
65936;SDS011;52707;52.086;5.418;2023-04-25T08:48:53;8.98;;;1.42;;
65936;SDS011;52707;52.086;5.418;2023-04-25T08:51:24;5.93;;;1.20;;
65936;SDS011;52707;52.086;5.418;2023-04-25T08:53:51;7.80;;;1.02;;
65936;SDS011;52707;52.086;5.418;2023-04-25T08:56:22;2.83;;;0.73;;
65936;SDS011;52707;52.086;5.418;2023-04-25T08:58:49;5.57;;;1.33;;
65936;SDS011;52707;52.086;5.418;2023-04-25T09:01:17;14.95;;;1.88;;
65936;SDS011;52707;52.086;5.418;2023-04-25T09:03:44;9.77;;;1.33;;
65936;SDS011;52707;52.086;5.418;2023-04-25T09:06:11;8.18;;;1.65;;
65936;SDS011;52707;52.086;5.418;2023-04-25T09:08:37;10.35;;;1.45;;
65936;SDS011;52707;52.086;5.418;2023-04-25T09:11:06;8.80;;;1.08;;
65936;SDS011;52707;52.086;5.418;2023-04-25T09:13:33;3.60;;;1.05;;
65936;SDS011;52707;52.086;5.418;2023-04-25T09:15:59;10.13;;;1.13;;
65936;SDS011;52707;52.086;5.418;2023-04-25T09:18:27;9.40;;;1.40;;
65936;SDS011;52707;52.086;5.418;2023-04-25T09:20:57;5.03;;;1.27;;
65936;SDS011;52707;52.086;5.418;2023-04-25T09:23:29;11.25;;;1.80;;
65936;SDS011;52707;52.086;5.418;2023-04-25T09:25:55;7.68;;;1.25;;
65936;SDS011;52707;52.086;5.418;2023-04-25T09:28:22;9.60;;;1.50;;
65936;SDS011;52707;52.086;5.418;2023-04-25T09:30:49;18.40;;;1.73;;
65936;SDS011;52707;52.086;5.418;2023-04-25T09:33:15;10.73;;;1.35;;
65936;SDS011;52707;52.086;5.418;2023-04-25T09:35:42;13.05;;;1.80;;
65936;SDS011;52707;52.086;5.418;2023-04-25T09:38:10;6.13;;;1.52;;
65936;SDS011;52707;52.086;5.418;2023-04-25T09:40:44;6.13;;;1.20;;
65936;SDS011;52707;52.086;5.418;2023-04-25T09:43:20;13.18;;;2.35;;
65936;SDS011;52707;52.086;5.418;2023-04-25T09:45:47;8.57;;;1.20;;
65936;SDS011;52707;52.086;5.418;2023-04-25T09:48:21;5.03;;;1.33;;
65936;SDS011;52707;52.086;5.418;2023-04-25T09:53:29;13.05;;;2.38;;
65936;SDS011;52707;52.086;5.418;2023-04-25T09:55:55;10.25;;;1.75;;
65936;SDS011;52707;52.086;5.418;2023-04-25T09:58:23;12.15;;;1.70;;
65936;SDS011;52707;52.086;5.418;2023-04-25T10:00:50;7.22;;;1.38;;
65936;SDS011;52707;52.086;5.418;2023-04-25T10:03:17;7.28;;;1.40;;
65936;SDS011;52707;52.086;5.418;2023-04-25T10:05:44;6.72;;;1.23;;
65936;SDS011;52707;52.086;5.418;2023-04-25T10:08:10;6.93;;;1.40;;
65936;SDS011;52707;52.086;5.418;2023-04-25T10:10:38;6.93;;;1.38;;
65936;SDS011;52707;52.086;5.418;2023-04-25T10:13:06;9.35;;;1.42;;
65936;SDS011;52707;52.086;5.418;2023-04-25T10:15:34;8.35;;;1.63;;
65936;SDS011;52707;52.086;5.418;2023-04-25T10:18:05;8.25;;;1.13;;
65936;SDS011;52707;52.086;5.418;2023-04-25T10:20:32;10.52;;;2.15;;
65936;SDS011;52707;52.086;5.418;2023-04-25T10:23:03;4.18;;;1.33;;
65936;SDS011;52707;52.086;5.418;2023-04-25T10:25:32;6.78;;;1.20;;
65936;SDS011;52707;52.086;5.418;2023-04-25T10:27:59;6.75;;;0.88;;
65936;SDS011;52707;52.086;5.418;2023-04-25T10:30:27;4.88;;;1.50;;
65936;SDS011;52707;52.086;5.418;2023-04-25T10:32:54;6.88;;;1.52;;
65936;SDS011;52707;52.086;5.418;2023-04-25T10:35:27;10.13;;;1.20;;
65936;SDS011;52707;52.086;5.418;2023-04-25T10:38:04;6.30;;;1.02;;
65936;SDS011;52707;52.086;5.418;2023-04-25T10:40:31;5.30;;;1.10;;
65936;SDS011;52707;52.086;5.418;2023-04-25T10:43:44;8.43;;;1.42;;
65936;SDS011;52707;52.086;5.418;2023-04-25T10:45:51;11.80;;;1.45;;
65936;SDS011;52707;52.086;5.418;2023-04-25T10:48:30;8.85;;;1.13;;
65936;SDS011;52707;52.086;5.418;2023-04-25T10:51:09;8.20;;;1.38;;
65936;SDS011;52707;52.086;5.418;2023-04-25T10:53:35;6.65;;;1.33;;
65936;SDS011;52707;52.086;5.418;2023-04-25T10:56:20;11.45;;;1.45;;
65936;SDS011;52707;52.086;5.418;2023-04-25T10:58:47;13.10;;;1.30;;
65936;SDS011;52707;52.086;5.418;2023-04-25T11:01:20;12.48;;;1.80;;
65936;SDS011;52707;52.086;5.418;2023-04-25T11:03:47;6.95;;;1.23;;
65936;SDS011;52707;52.086;5.418;2023-04-25T11:08:49;4.68;;;1.20;;
65936;SDS011;52707;52.086;5.418;2023-04-25T11:11:17;5.10;;;1.40;;
65936;SDS011;52707;52.086;5.418;2023-04-25T11:13:44;3.70;;;1.13;;
65936;SDS011;52707;52.086;5.418;2023-04-25T11:16:10;9.60;;;1.38;;
65936;SDS011;52707;52.086;5.418;2023-04-25T11:18:40;8.73;;;1.60;;
65936;SDS011;52707;52.086;5.418;2023-04-25T11:21:07;7.30;;;1.30;;
65936;SDS011;52707;52.086;5.418;2023-04-25T11:23:33;6.93;;;1.75;;
65936;SDS011;52707;52.086;5.418;2023-04-25T11:25:59;12.52;;;1.23;;
65936;SDS011;52707;52.086;5.418;2023-04-25T11:28:27;8.98;;;2.00;;
65936;SDS011;52707;52.086;5.418;2023-04-25T11:30:53;8.95;;;1.83;;
65936;SDS011;52707;52.086;5.418;2023-04-25T11:33:23;5.65;;;1.10;;
65936;SDS011;52707;52.086;5.418;2023-04-25T11:35:50;8.23;;;1.35;;
65936;SDS011;52707;52.086;5.418;2023-04-25T11:38:16;5.20;;;1.33;;
65936;SDS011;52707;52.086;5.418;2023-04-25T11:40:42;8.32;;;1.73;;
65936;SDS011;52707;52.086;5.418;2023-04-25T11:43:09;9.60;;;1.55;;
65936;SDS011;52707;52.086;5.418;2023-04-25T11:45:36;10.95;;;1.90;;
65936;SDS011;52707;52.086;5.418;2023-04-25T11:48:03;5.78;;;1.50;;
65936;SDS011;52707;52.086;5.418;2023-04-25T11:50:29;6.65;;;1.70;;
65936;SDS011;52707;52.086;5.418;2023-04-25T11:52:56;4.95;;;1.00;;
65936;SDS011;52707;52.086;5.418;2023-04-25T11:55:23;2.33;;;0.85;;
65936;SDS011;52707;52.086;5.418;2023-04-25T11:57:49;6.35;;;1.80;;
65936;SDS011;52707;52.086;5.418;2023-04-25T12:00:17;6.15;;;1.20;;
65936;SDS011;52707;52.086;5.418;2023-04-25T12:02:45;6.03;;;1.35;;
65936;SDS011;52707;52.086;5.418;2023-04-25T12:05:12;6.10;;;1.17;;
65936;SDS011;52707;52.086;5.418;2023-04-25T12:07:56;4.60;;;1.15;;
65936;SDS011;52707;52.086;5.418;2023-04-25T12:10:24;5.78;;;1.13;;
65936;SDS011;52707;52.086;5.418;2023-04-25T12:12:50;11.15;;;1.23;;
65936;SDS011;52707;52.086;5.418;2023-04-25T12:15:18;5.78;;;1.60;;
65936;SDS011;52707;52.086;5.418;2023-04-25T12:17:48;9.77;;;1.23;;
65936;SDS011;52707;52.086;5.418;2023-04-25T12:20:15;5.10;;;1.15;;
65936;SDS011;52707;52.086;5.418;2023-04-25T12:22:45;3.60;;;1.27;;
65936;SDS011;52707;52.086;5.418;2023-04-25T12:25:34;6.70;;;1.10;;
65936;SDS011;52707;52.086;5.418;2023-04-25T12:28:17;4.65;;;1.10;;
65936;SDS011;52707;52.086;5.418;2023-04-25T12:33:22;4.30;;;1.10;;
65936;SDS011;52707;52.086;5.418;2023-04-25T12:35:49;7.78;;;1.23;;
65936;SDS011;52707;52.086;5.418;2023-04-25T12:38:25;4.00;;;1.02;;
65936;SDS011;52707;52.086;5.418;2023-04-25T12:40:51;4.25;;;1.23;;
65936;SDS011;52707;52.086;5.418;2023-04-25T12:43:18;3.95;;;1.10;;
65936;SDS011;52707;52.086;5.418;2023-04-25T12:45:45;6.25;;;1.15;;
65936;SDS011;52707;52.086;5.418;2023-04-25T12:48:13;7.00;;;1.00;;
65936;SDS011;52707;52.086;5.418;2023-04-25T12:50:39;6.18;;;1.73;;
65936;SDS011;52707;52.086;5.418;2023-04-25T12:53:07;9.60;;;2.13;;
65936;SDS011;52707;52.086;5.418;2023-04-25T12:55:33;7.50;;;1.20;;
65936;SDS011;52707;52.086;5.418;2023-04-25T12:57:59;3.40;;;1.02;;
65936;SDS011;52707;52.086;5.418;2023-04-25T13:00:26;5.97;;;1.42;;
65936;SDS011;52707;52.086;5.418;2023-04-25T13:02:52;5.70;;;1.55;;
65936;SDS011;52707;52.086;5.418;2023-04-25T13:05:19;6.68;;;1.25;;
65936;SDS011;52707;52.086;5.418;2023-04-25T13:07:45;6.70;;;1.50;;
65936;SDS011;52707;52.086;5.418;2023-04-25T13:10:11;6.75;;;1.02;;
65936;SDS011;52707;52.086;5.418;2023-04-25T13:12:38;7.53;;;1.30;;
65936;SDS011;52707;52.086;5.418;2023-04-25T13:15:04;5.55;;;1.05;;
65936;SDS011;52707;52.086;5.418;2023-04-25T13:17:31;7.22;;;1.17;;
65936;SDS011;52707;52.086;5.418;2023-04-25T13:19:57;4.47;;;1.45;;
65936;SDS011;52707;52.086;5.418;2023-04-25T13:22:23;9.40;;;1.55;;
65936;SDS011;52707;52.086;5.418;2023-04-25T13:24:50;6.97;;;1.27;;
65936;SDS011;52707;52.086;5.418;2023-04-25T13:27:16;4.50;;;1.00;;
65936;SDS011;52707;52.086;5.418;2023-04-25T13:29:42;9.75;;;1.13;;
65936;SDS011;52707;52.086;5.418;2023-04-25T13:32:08;3.38;;;1.10;;
65936;SDS011;52707;52.086;5.418;2023-04-25T13:34:35;6.88;;;0.80;;
65936;SDS011;52707;52.086;5.418;2023-04-25T13:37:01;6.13;;;1.27;;
65936;SDS011;52707;52.086;5.418;2023-04-25T13:39:28;4.75;;;0.93;;
65936;SDS011;52707;52.086;5.418;2023-04-25T13:41:54;3.33;;;1.10;;
65936;SDS011;52707;52.086;5.418;2023-04-25T13:44:20;7.70;;;1.23;;
65936;SDS011;52707;52.086;5.418;2023-04-25T13:46:47;7.30;;;1.08;;
65936;SDS011;52707;52.086;5.418;2023-04-25T13:49:13;6.97;;;1.35;;
65936;SDS011;52707;52.086;5.418;2023-04-25T13:51:40;6.28;;;1.30;;
65936;SDS011;52707;52.086;5.418;2023-04-25T13:54:06;2.08;;;0.93;;
65936;SDS011;52707;52.086;5.418;2023-04-25T13:56:33;9.20;;;0.98;;
65936;SDS011;52707;52.086;5.418;2023-04-25T13:59:00;8.00;;;1.45;;
65936;SDS011;52707;52.086;5.418;2023-04-25T14:01:26;11.38;;;1.00;;
65936;SDS011;52707;52.086;5.418;2023-04-25T14:03:57;9.32;;;1.50;;
65936;SDS011;52707;52.086;5.418;2023-04-25T14:06:23;5.65;;;1.15;;
65936;SDS011;52707;52.086;5.418;2023-04-25T14:08:50;5.05;;;1.33;;
65936;SDS011;52707;52.086;5.418;2023-04-25T14:11:16;7.57;;;1.17;;
65936;SDS011;52707;52.086;5.418;2023-04-25T14:13:44;4.75;;;1.83;;
65936;SDS011;52707;52.086;5.418;2023-04-25T14:16:11;5.75;;;1.35;;
65936;SDS011;52707;52.086;5.418;2023-04-25T14:18:37;12.35;;;1.55;;
65936;SDS011;52707;52.086;5.418;2023-04-25T14:21:03;8.98;;;1.50;;
65936;SDS011;52707;52.086;5.418;2023-04-25T14:23:30;9.25;;;1.58;;
65936;SDS011;52707;52.086;5.418;2023-04-25T14:25:57;7.47;;;1.55;;
65936;SDS011;52707;52.086;5.418;2023-04-25T14:28:23;11.60;;;1.80;;
65936;SDS011;52707;52.086;5.418;2023-04-25T14:30:49;9.80;;;1.40;;
65936;SDS011;52707;52.086;5.418;2023-04-25T14:33:16;8.30;;;1.60;;
65936;SDS011;52707;52.086;5.418;2023-04-25T14:35:42;7.93;;;1.35;;
65936;SDS011;52707;52.086;5.418;2023-04-25T14:38:08;5.80;;;1.63;;
65936;SDS011;52707;52.086;5.418;2023-04-25T14:40:35;8.77;;;1.30;;
65936;SDS011;52707;52.086;5.418;2023-04-25T14:43:01;4.97;;;1.10;;
65936;SDS011;52707;52.086;5.418;2023-04-25T14:45:27;4.93;;;1.42;;
65936;SDS011;52707;52.086;5.418;2023-04-25T14:47:54;7.72;;;1.25;;